• Join FlightAware (Why Join?)
  • Login
  • US Flag 
02:22AM EST


 

Airport Tracker/Info


-or-


 

Live Flight TrackerFlight Track Log ✈ N52407 ✈ 18-May-2014 ✈ KMTN - KCXY

Flight Track Log - Related Links

Times and Time Zones

All times are in EDT time to prevent confusion due to time zone crossing. See the N52407 flight status page for this flight to view local times or setup timezone preferences in your user account.

Time Position Orientation Groundspeed Altitude Reporting Facility
EDT Latitude Longitude Course Direction KTS MPH feet Rate Location/Type
02:47PM 39.4833 -76.4833 339° North 100 115 3,100  Level Potomac TRACON
02:48PM 39.5167 -76.5000 339° North 95 109 3,700 480 Climbing Potomac TRACON
02:49PM 39.5250 -76.5036 342° North 97 112 4,000 420 Climbing Washington Center
02:50PM 39.5522 -76.5164 340° North 93 107 4,500 300 Climbing Washington Center
02:51PM 39.5789 -76.5289 340° North 95 109 4,700  Climbing Washington Center
02:52PM 39.6061 -76.5417 340° North 99 114 4,600  Descending Washington Center
02:53PM 39.6281 -76.5528 339° North 95 109 4,700  Climbing Washington Center
02:54PM 39.6519 -76.5667 336° Northwest 94 108 4,700 -60 Level Washington Center
02:55PM 39.6783 -76.5781 342° North 94 108 4,600 -60 Descending Washington Center
02:56PM 39.7081 -76.5953 336° Northwest 95 109 4,600  Level Washington Center
02:57PM 39.7336 -76.6083 339° North 96 110 4,600  Level Washington Center
02:58PM 39.7597 -76.6231 337° Northwest 98 113 4,700  Climbing Washington Center
02:59PM 39.7853 -76.6342 342° North 98 113 4,600 -60 Descending Washington Center
03:00PM 39.8064 -76.6439 341° North 89 102 4,600  Level Washington Center
03:01PM 39.8328 -76.6567 340° North 90 104 4,600  Level Washington Center
03:02PM 39.8611 -76.6703 340° North 91 105 4,600  Level Washington Center
03:03PM 39.8836 -76.6806 341° North 91 105 4,700  Climbing Washington Center
03:04PM 39.9122 -76.6936 341° North 97 112 4,600 -300 Descending Washington Center
03:05PM 39.9378 -76.7050 341° North 98 113 4,200 -300 Descending Washington Center
03:06PM 39.9606 -76.7142 343° North 93 107 4,100  Descending Washington Center
03:07PM 39.9861 -76.7203 350° North 91 105 4,200 -240 Climbing Washington Center
03:08PM 40.0111 -76.7275 348° North 91 105 3,700 -360 Descending Washington Center
03:09PM 40.0400 -76.7358 348° North 91 105 3,500 -420 Descending Washington Center
03:11PM 40.0633 -76.7400 352° North 91 105 2,900 -540 Descending Washington Center
03:12PM 40.0886 -76.7472 348° North 91 105 2,400 -540 Descending Washington Center
03:14PM 40.1382 -76.8088 333° Northwest  Level FlightAware Approximate
03:21PM 40.2167 -76.8500 339° North  Level FlightAware Approximate
03:22PM 40.2171 -76.8514 180° South  Level Estimated